Time;durP1;ratioP1;P1;durP2;ratioP2;P2;SDS_P1;SDS_P2;PMS_P1;PMS_P2;Temp;Humidity;BMP_temperature;BMP_pressure;BME280_temperature;BME280_humidity;BME280_pressure;Samples;Min_cycle;Max_cycle;Signal;HPM_P1;HPM_P2
2022/10/06 00:01:54;;;;;;;5.37;3.60;;;;;;;13.99;100.00;154954.75;5051937;28;20800;-87
2022/10/06 00:04:21;;;;;;;4.33;3.83;;;;;;;14.00;100.00;154956.06;5025013;28;20450;-87
2022/10/06 00:06:48;;;;;;;4.23;3.73;;;;;;;13.99;100.00;154953.44;5052248;28;20431;-87
2022/10/06 00:09:14;;;;;;;3.73;3.33;;;;;;;13.96;100.00;154946.94;5050553;28;20585;-87
2022/10/06 00:11:41;;;;;;;4.00;3.60;;;;;;;13.95;100.00;154943.09;5033844;28;20486;-87
2022/10/06 00:14:08;;;;;;;6.57;4.30;;;;;;;13.95;100.00;154943.09;5056381;28;20446;-87
2022/10/06 00:16:36;;;;;;;4.17;3.77;;;;;;;14.00;100.00;154956.06;5037282;28;20432;-87
2022/10/06 00:19:02;;;;;;;5.00;3.80;;;;;;;13.96;100.00;154945.66;5028669;28;20554;-87
2022/10/06 00:21:29;;;;;;;4.10;3.40;;;;;;;13.97;100.00;154948.25;5033156;28;20470;-87
2022/10/06 00:23:55;;;;;;;3.60;3.30;;;;;;;14.01;100.00;154958.63;5052065;28;20785;-87
2022/10/06 00:26:23;;;;;;;4.13;3.67;;;;;;;14.01;100.00;154958.63;5032216;28;20450;-87
2022/10/06 00:28:49;;;;;;;4.03;3.70;;;;;;;14.05;100.00;154969.03;5052218;28;20505;-87
2022/10/06 00:31:18;;;;;;;4.10;3.70;;;;;;;14.04;100.00;154966.41;5050228;28;20480;-87
2022/10/06 00:33:46;;;;;;;4.40;4.00;;;;;;;14.09;100.00;154979.41;5050749;28;20467;-87
2022/10/06 00:36:13;;;;;;;4.00;3.60;;;;;;;14.15;100.00;154995.00;5017437;28;20442;-87
2022/10/06 00:38:40;;;;;;;5.77;4.00;;;;;;;14.14;100.00;154992.38;5050252;28;20849;-87
2022/10/06 00:41:11;;;;;;;5.10;3.70;;;;;;;14.17;100.00;155000.19;5034053;28;20463;-87
2022/10/06 00:43:47;;;;;;;5.63;3.60;;;;;;;14.20;100.00;155006.66;5048659;28;20477;-87
2022/10/06 00:46:18;;;;;;;4.13;3.70;;;;;;;14.21;100.00;155009.28;5006954;28;20952;-87
2022/10/06 00:48:50;;;;;;;4.13;3.47;;;;;;;14.20;100.00;155007.97;5033781;28;20790;-87
2022/10/06 00:51:18;;;;;;;3.80;3.40;;;;;;;14.24;100.00;155018.38;5016514;28;20495;-87
2022/10/06 00:53:45;;;;;;;3.40;3.03;;;;;;;14.22;100.00;155011.84;5051866;28;20442;-87
2022/10/06 00:56:12;;;;;;;3.83;3.10;;;;;;;14.20;100.00;155006.66;5020634;28;20574;-87
2022/10/06 00:58:39;;;;;;;4.00;3.33;;;;;;;14.21;100.00;155010.59;5017698;28;20933;-87
2022/10/06 01:01:06;;;;;;;4.80;3.23;;;;;;;14.16;100.00;154997.59;5023436;28;20960;-87
2022/10/06 01:03:35;;;;;;;4.17;3.40;;;;;;;14.18;100.00;155001.50;5037814;28;20500;-87
2022/10/06 01:06:04;;;;;;;3.30;3.00;;;;;;;14.15;100.00;154995.00;5054058;28;21037;-87
2022/10/06 01:08:31;;;;;;;3.60;3.10;;;;;;;14.16;100.00;154997.59;5025020;28;20965;-87
2022/10/06 01:10:58;;;;;;;4.17;3.77;;;;;;;14.20;100.00;155006.66;5034133;28;20431;-87
2022/10/06 01:13:25;;;;;;;3.80;3.50;;;;;;;14.20;100.00;155007.97;5052040;28;20439;-87
2022/10/06 01:15:54;;;;;;;3.90;3.50;;;;;;;14.19;100.00;155005.34;5052971;28;20450;-87
2022/10/06 01:18:25;;;;;;;4.40;3.60;;;;;;;14.18;100.00;155002.78;5050772;28;20449;-87
2022/10/06 01:20:57;;;;;;;3.73;3.40;;;;;;;14.16;100.00;154996.31;5033091;28;20436;-87
2022/10/06 01:23:25;;;;;;;4.20;3.80;;;;;;;14.13;100.00;154989.81;5035271;28;20440;-87
2022/10/06 01:25:52;;;;;;;3.83;3.53;;;;;;;14.10;100.00;154982.03;5031021;28;20485;-87
2022/10/06 01:28:19;;;;;;;5.10;3.70;;;;;;;14.08;100.00;154975.53;5051800;28;20463;-87
2022/10/06 01:30:51;;;;;;;4.43;3.43;;;;;;;14.04;100.00;154967.72;5036543;28;20481;-87
2022/10/06 01:33:19;;;;;;;5.17;3.20;;;;;;;14.04;100.00;154967.72;5018893;28;20977;-87
2022/10/06 01:35:48;;;;;;;3.60;3.30;;;;;;;14.04;100.00;154966.41;5019185;28;20443;-87
2022/10/06 01:38:16;;;;;;;7.50;3.80;;;;;;;14.01;100.00;154959.94;5036609;28;20455;-87
2022/10/06 01:40:45;;;;;;;3.63;3.33;;;;;;;14.00;100.00;154956.06;5054424;28;20442;-87
2022/10/06 01:43:12;;;;;;;4.10;3.70;;;;;;;13.99;100.00;154953.44;5036189;28;20443;-87
2022/10/06 01:45:39;;;;;;;4.07;3.60;;;;;;;14.00;100.00;154957.31;5017615;28;20950;-87
2022/10/06 01:48:06;;;;;;;4.03;3.50;;;;;;;14.00;100.00;154956.06;5016854;28;20490;-87
2022/10/06 01:50:33;;;;;;;4.07;3.60;;;;;;;14.00;100.00;154957.31;5042594;28;20455;-87
2022/10/06 01:53:00;;;;;;;3.27;2.97;;;;;;;13.99;100.00;154953.44;5045415;28;20478;-87
2022/10/06 01:55:27;;;;;;;4.20;3.20;;;;;;;13.98;100.00;154952.13;5035835;28;20466;-87
2022/10/06 01:57:58;;;;;;;4.00;3.00;;;;;;;13.95;100.00;154944.34;5020301;28;20534;-87
2022/10/06 02:00:25;;;;;;;3.80;3.20;;;;;;;13.92;100.00;154935.28;5019377;28;20809;-87
2022/10/06 02:02:52;;;;;;;4.50;3.13;;;;;;;13.93;100.00;154937.84;5035055;28;20730;-87
2022/10/06 02:05:19;;;;;;;3.60;3.30;;;;;;;13.94;100.00;154940.47;5054039;28;20470;-87
2022/10/06 02:07:50;;;;;;;3.57;3.20;;;;;;;13.85;100.00;154918.38;5018755;28;20466;-87
2022/10/06 02:10:16;;;;;;;3.30;2.90;;;;;;;13.85;100.00;154917.06;5016599;28;20817;-87
2022/10/06 02:12:44;;;;;;;4.90;3.23;;;;;;;13.83;100.00;154911.91;5012971;28;21004;-87
2022/10/06 02:15:12;;;;;;;5.50;3.33;;;;;;;13.83;100.00;154911.91;5036018;28;20549;-87
2022/10/06 02:17:39;;;;;;;3.50;3.20;;;;;;;13.82;100.00;154909.34;5035417;28;20455;-87
2022/10/06 02:20:06;;;;;;;4.30;3.30;;;;;;;13.79;100.00;154901.53;5019061;28;20485;-87
2022/10/06 02:22:33;;;;;;;3.70;3.23;;;;;;;13.81;100.00;154906.72;5035682;28;20435;-87
2022/10/06 02:25:00;;;;;;;3.70;3.27;;;;;;;13.77;100.00;154897.63;5035189;28;20451;-87
2022/10/06 02:27:26;;;;;;;6.30;3.60;;;;;;;13.76;100.00;154895.06;5018297;28;20830;-87
2022/10/06 02:29:54;;;;;;;5.10;3.70;;;;;;;13.75;100.00;154892.44;5018872;28;20442;-87
2022/10/06 02:32:22;;;;;;;4.10;3.53;;;;;;;13.75;100.00;154891.13;5053423;28;20469;-87
2022/10/06 02:34:49;;;;;;;3.70;3.20;;;;;;;13.74;100.00;154888.56;5035331;28;20544;-87
2022/10/06 02:37:18;;;;;;;4.93;3.70;;;;;;;13.70;100.00;154878.16;5018502;28;20486;-87
2022/10/06 02:39:46;;;;;;;3.60;3.10;;;;;;;13.68;100.00;154874.28;5035585;28;20945;-87
2022/10/06 02:42:12;;;;;;;4.27;3.87;;;;;;;13.64;100.00;154862.56;5019153;28;20848;-87
2022/10/06 02:44:39;;;;;;;4.30;3.90;;;;;;;13.62;100.00;154857.38;5042377;28;20466;-87
2022/10/06 02:47:11;;;;;;;3.93;3.63;;;;;;;13.61;100.00;154854.81;5018406;28;20811;-87
2022/10/06 02:49:39;;;;;;;3.70;3.33;;;;;;;13.61;100.00;154854.81;5053018;28;20473;-87
2022/10/06 02:52:07;;;;;;;4.03;3.63;;;;;;;13.60;100.00;154853.50;5018514;28;20813;-87
2022/10/06 02:54:35;;;;;;;4.50;3.27;;;;;;;13.60;100.00;154852.22;5034532;28;20536;-87
2022/10/06 02:57:01;;;;;;;4.33;3.30;;;;;;;13.59;100.00;154849.59;5018043;28;20483;-86
2022/10/06 02:59:28;;;;;;;3.20;2.90;;;;;;;13.57;100.00;154844.41;5051941;28;20467;-87
2022/10/06 03:01:55;;;;;;;4.43;3.77;;;;;;;13.57;100.00;154844.41;5050659;28;20459;-87
2022/10/06 03:04:22;;;;;;;6.10;3.30;;;;;;;13.55;100.00;154840.53;5034717;28;20438;-87
2022/10/06 03:06:50;;;;;;;4.43;3.33;;;;;;;13.54;100.00;154836.63;5018190;28;20588;-87
2022/10/06 03:09:25;;;;;;;4.13;3.40;;;;;;;13.51;100.00;154828.81;5035004;28;20531;-87
2022/10/06 03:11:53;;;;;;;4.80;4.33;;;;;;;13.47;100.00;154818.47;5018045;28;20477;-87
2022/10/06 03:14:32;;;;;;;3.63;3.07;;;;;;;13.46;100.00;154817.16;5036386;28;20449;-87
2022/10/06 03:16:59;;;;;;;3.90;3.30;;;;;;;13.42;100.00;154808.06;5018109;28;20465;-87
2022/10/06 03:19:28;;;;;;;6.63;3.63;;;;;;;13.37;100.00;154795.09;5041991;28;20466;-87
2022/10/06 03:21:56;;;;;;;3.80;3.17;;;;;;;13.33;100.00;154784.72;5010272;28;20490;-87
2022/10/06 03:24:36;;;;;;;5.00;3.77;;;;;;;13.28;100.00;154771.75;5018234;28;20441;-87
2022/10/06 03:27:02;;;;;;;3.60;3.30;;;;;;;13.28;100.00;154771.75;5017689;28;20458;-87
2022/10/06 03:29:29;;;;;;;4.53;3.23;;;;;;;13.26;100.00;154766.53;5034125;28;20465;-87
2022/10/06 03:31:57;;;;;;;3.67;3.30;;;;;;;13.25;100.00;154762.66;5051610;28;20443;-87
2022/10/06 03:34:23;;;;;;;7.47;3.37;;;;;;;13.23;100.00;154758.78;5034216;28;20462;-87
2022/10/06 03:36:50;;;;;;;3.83;3.23;;;;;;;13.22;100.00;154756.19;5033614;28;20518;-87
2022/10/06 03:39:22;;;;;;;4.10;3.07;;;;;;;13.22;100.00;154756.19;5018189;28;20878;-87
2022/10/06 03:41:50;;;;;;;4.20;3.23;;;;;;;13.22;100.00;154756.19;5006715;28;20448;-87
2022/10/06 03:44:16;;;;;;;5.50;4.00;;;;;;;13.24;100.00;154760.03;5031220;28;20440;-87
2022/10/06 03:46:43;;;;;;;9.83;3.83;;;;;;;13.25;100.00;154762.66;5015833;28;20443;-87
2022/10/06 03:49:11;;;;;;;3.47;3.17;;;;;;;13.29;100.00;154774.31;5034724;28;20831;-87
2022/10/06 03:51:39;;;;;;;3.30;3.00;;;;;;;13.32;100.00;154780.81;5033619;28;20439;-87
2022/10/06 03:54:11;;;;;;;3.07;2.77;;;;;;;13.33;100.00;154783.44;5009936;28;20471;-87
2022/10/06 03:56:41;;;;;;;4.40;3.37;;;;;;;13.34;100.00;154787.28;5014626;28;20550;-87
2022/10/06 03:59:12;;;;;;;4.83;3.33;;;;;;;13.33;100.00;154784.72;4998301;28;20530;-87
2022/10/06 04:01:41;;;;;;;4.27;3.30;;;;;;;13.33;100.00;154783.44;5001082;28;20804;-87
2022/10/06 04:04:10;;;;;;;3.50;3.20;;;;;;;13.30;100.00;154776.94;5008892;28;20459;-87
2022/10/06 04:06:39;;;;;;;5.13;3.57;;;;;;;13.32;100.00;154780.81;5030560;28;20833;-87
2022/10/06 04:09:10;;;;;;;4.60;3.40;;;;;;;13.35;100.00;154789.91;5033888;28;20431;-87
2022/10/06 04:11:38;;;;;;;3.90;3.50;;;;;;;13.42;100.00;154806.81;5047497;28;20450;-87
2022/10/06 04:14:09;;;;;;;3.83;3.50;;;;;;;13.47;100.00;154818.47;5050228;28;20525;-87
2022/10/06 04:16:38;;;;;;;6.50;3.70;;;;;;;13.52;100.00;154831.44;5034267;28;20834;-87
2022/10/06 04:19:08;;;;;;;4.23;3.40;;;;;;;13.56;100.00;154841.78;5016751;28;20447;-87
2022/10/06 04:21:37;;;;;;;3.83;3.40;;;;;;;13.62;100.00;154857.38;5033553;28;20447;-87
2022/10/06 04:24:06;;;;;;;3.43;3.00;;;;;;;13.67;100.00;154871.66;5017177;28;20600;-87
2022/10/06 04:26:38;;;;;;;4.97;3.30;;;;;;;13.72;100.00;154883.34;5033752;28;20443;-87
2022/10/06 04:29:05;;;;;;;5.60;3.27;;;;;;;13.76;100.00;154893.75;5050121;28;20517;-87
2022/10/06 04:31:35;;;;;;;4.20;2.80;;;;;;;13.78;100.00;154898.91;5017442;28;20455;-87
2022/10/06 04:34:02;;;;;;;5.60;3.73;;;;;;;13.79;100.00;154902.78;5034552;28;20476;-87
2022/10/06 04:36:31;;;;;;;4.60;3.60;;;;;;;13.81;100.00;154906.72;5009405;28;20525;-87
2022/10/06 04:39:00;;;;;;;4.37;3.43;;;;;;;13.83;100.00;154911.91;5014490;28;21011;-87
2022/10/06 04:41:31;;;;;;;3.90;3.50;;;;;;;13.83;100.00;154913.22;5017586;28;20435;-87
2022/10/06 04:43:59;;;;;;;4.30;2.93;;;;;;;13.85;100.00;154917.06;5009883;28;20647;-87
2022/10/06 04:46:27;;;;;;;6.73;3.80;;;;;;;13.83;100.00;154913.22;5054348;28;20902;-87
2022/10/06 04:48:55;;;;;;;4.80;3.83;;;;;;;13.82;100.00;154909.34;5020645;28;20847;-87
2022/10/06 04:51:26;;;;;;;4.13;3.73;;;;;;;13.79;100.00;154902.78;5051316;28;20442;-87
2022/10/06 04:53:53;;;;;;;6.67;3.97;;;;;;;13.78;100.00;154898.91;5037968;28;20528;-87
2022/10/06 04:56:22;;;;;;;5.27;4.27;;;;;;;13.76;100.00;154895.06;5037288;28;20462;-87
2022/10/06 04:58:51;;;;;;;3.97;3.40;;;;;;;13.74;100.00;154888.56;5037147;28;20878;-87
2022/10/06 05:01:20;;;;;;;4.27;3.70;;;;;;;13.72;100.00;154883.34;5036301;28;20447;-87
2022/10/06 05:03:48;;;;;;;4.87;3.80;;;;;;;13.69;100.00;154875.53;5032614;28;20537;-87
2022/10/06 05:06:17;;;;;;;4.23;3.73;;;;;;;13.68;100.00;154872.97;5053363;28;20447;-87
2022/10/06 05:08:47;;;;;;;5.07;4.13;;;;;;;13.67;100.00;154870.34;5017617;28;20451;-87
2022/10/06 05:11:17;;;;;;;4.83;3.47;;;;;;;13.66;100.00;154867.78;5033647;28;20951;-87
2022/10/06 05:13:44;;;;;;;5.37;4.30;;;;;;;13.67;100.00;154870.34;5050651;28;20487;-87
2022/10/06 05:16:13;;;;;;;4.50;4.10;;;;;;;13.66;100.00;154869.06;5020415;28;20581;-87
2022/10/06 05:18:40;;;;;;;5.10;3.73;;;;;;;13.67;100.00;154871.66;5014865;28;20447;-87
2022/10/06 05:21:11;;;;;;;5.17;3.63;;;;;;;13.70;100.00;154878.16;5018941;28;20458;-87
2022/10/06 05:23:40;;;;;;;4.70;4.20;;;;;;;13.72;100.00;154883.34;5053665;28;20431;-87
2022/10/06 05:26:08;;;;;;;4.90;3.63;;;;;;;13.72;100.00;154884.63;5018520;28;20789;-87
2022/10/06 05:28:36;;;;;;;5.27;3.90;;;;;;;13.73;100.00;154887.25;5036311;28;20502;-87
2022/10/06 05:31:04;;;;;;;6.40;4.00;;;;;;;13.76;100.00;154893.75;5032029;28;20964;-87
2022/10/06 05:33:32;;;;;;;5.20;4.07;;;;;;;13.75;100.00;154891.13;5026471;28;20462;-87
2022/10/06 05:36:00;;;;;;;4.43;3.80;;;;;;;13.74;100.00;154889.81;5035599;28;20454;-87
2022/10/06 05:38:28;;;;;;;4.83;3.73;;;;;;;13.74;100.00;154889.81;5032708;28;20455;-87
2022/10/06 05:41:02;;;;;;;4.20;3.80;;;;;;;13.75;100.00;154891.13;5053810;28;20800;-87
2022/10/06 05:43:29;;;;;;;7.17;4.27;;;;;;;13.75;100.00;154891.13;5034719;28;20457;-87
2022/10/06 05:45:57;;;;;;;4.63;4.23;;;;;;;13.75;100.00;154891.13;5011480;28;20467;-87
2022/10/06 05:48:25;;;;;;;14.00;4.20;;;;;;;13.75;100.00;154891.13;5031297;28;20457;-87
2022/10/06 05:50:58;;;;;;;5.63;3.87;;;;;;;13.74;100.00;154888.56;5038602;28;20498;-87
2022/10/06 05:53:25;;;;;;;7.90;3.97;;;;;;;13.77;100.00;154896.31;5008109;28;20471;-87
2022/10/06 05:55:52;;;;;;;5.00;4.13;;;;;;;13.77;100.00;154897.63;5027609;28;21004;-87
2022/10/06 05:58:20;;;;;;;5.10;4.07;;;;;;;13.78;100.00;154898.91;5029413;28;20462;-87
2022/10/06 06:00:47;;;;;;;5.00;3.97;;;;;;;13.78;100.00;154898.91;5016777;28;20451;-87
2022/10/06 06:03:14;;;;;;;4.37;3.97;;;;;;;13.79;100.00;154901.53;5033201;28;20454;-87
2022/10/06 06:05:41;;;;;;;4.43;3.87;;;;;;;13.80;100.00;154904.09;5024789;28;20447;-87
2022/10/06 06:08:09;;;;;;;4.50;3.60;;;;;;;13.83;100.00;154911.91;5017161;28;20853;-87
2022/10/06 06:10:36;;;;;;;6.00;4.30;;;;;;;13.85;100.00;154917.06;5007706;28;20890;-87
2022/10/06 06:13:03;;;;;;;4.80;4.30;;;;;;;13.85;100.00;154917.06;5053854;28;20470;-87
2022/10/06 06:16:03;;;;;;;4.83;4.20;;;;;;;13.88;100.00;154926.19;5026209;28;20994;-87
2022/10/06 06:18:31;;;;;;;6.47;4.37;;;;;;;13.90;100.00;154930.06;5017126;28;20462;-87
2022/10/06 06:21:00;;;;;;;4.80;4.33;;;;;;;13.91;100.00;154932.66;5018889;28;20833;-87
2022/10/06 06:23:31;;;;;;;4.80;4.10;;;;;;;13.94;100.00;154941.78;5031457;28;20454;-87
2022/10/06 06:26:00;;;;;;;5.90;3.93;;;;;;;13.96;100.00;154946.94;5056312;28;20477;-87
2022/10/06 06:28:28;;;;;;;7.50;4.70;;;;;;;13.98;100.00;154950.81;5034637;28;20545;-87
2022/10/06 06:31:03;;;;;;;6.60;4.33;;;;;;;14.01;100.00;154959.94;5050326;28;20457;-87
2022/10/06 06:33:31;;;;;;;4.70;4.20;;;;;;;14.07;100.00;154974.22;5033351;28;20481;-87
2022/10/06 06:36:01;;;;;;;4.87;4.37;;;;;;;14.11;100.00;154983.31;5029827;28;20478;-87
2022/10/06 06:38:28;;;;;;;7.60;4.47;;;;;;;14.16;100.00;154996.31;5017423;28;20513;-87
2022/10/06 06:40:55;;;;;;;5.57;4.40;;;;;;;14.22;100.00;155013.16;5055064;28;20505;-87
2022/10/06 06:43:22;;;;;;;6.63;4.30;;;;;;;14.26;100.00;155023.56;5015177;28;20491;-87
2022/10/06 06:46:14;;;;;;;6.70;4.37;;;;;;;14.31;100.00;155036.59;5016785;28;20447;-87
2022/10/06 06:49:07;;;;;;;5.60;4.60;;;;;;;14.34;100.00;155044.41;5041968;28;20900;-88
2022/10/06 06:51:40;;;;;;;5.07;3.97;;;;;;;14.38;100.00;155054.75;5016758;28;20509;-87
2022/10/06 06:54:07;;;;;;;5.90;3.90;;;;;;;14.43;100.00;155067.75;5031846;28;20463;-87
2022/10/06 06:56:38;;;;;;;6.17;3.63;;;;;;;14.49;100.00;155083.34;5032677;28;20474;-87
2022/10/06 06:59:10;;;;;;;5.67;3.67;;;;;;;14.53;100.00;155093.72;5019873;28;20454;-87
2022/10/06 07:01:44;;;;;;;4.80;3.50;;;;;;;14.56;100.00;155101.50;5012428;28;20710;-87
2022/10/06 07:04:11;;;;;;;3.50;3.20;;;;;;;14.62;100.00;155117.09;5034616;28;20972;-87
2022/10/06 07:06:39;;;;;;;4.90;3.90;;;;;;;14.66;100.00;155124.91;5034342;28;20446;-88
2022/10/06 07:09:09;;;;;;;4.47;3.53;;;;;;;14.70;100.00;155136.59;5007859;28;20447;-87
2022/10/06 07:11:38;;;;;;;4.90;3.30;;;;;;;14.73;100.00;155144.38;5018931;28;20458;-75
2022/10/06 07:14:11;;;;;;;4.10;3.10;;;;;;;14.75;100.00;155148.25;5005214;28;20540;-75
2022/10/06 07:25:13;;;;;;;6.57;3.10;;;;;;;14.95;100.00;155201.56;5027999;28;20566;-87
2022/10/06 07:27:45;;;;;;;7.43;3.43;;;;;;;14.99;100.00;155210.63;5031277;28;20458;-87
2022/10/06 07:30:17;;;;;;;2.90;2.60;;;;;;;14.99;100.00;155210.63;5032739;28;20455;-87
2022/10/06 07:32:46;;;;;;;4.00;2.90;;;;;;;14.99;100.00;155210.63;5006647;28;20451;-87
2022/10/06 07:35:15;;;;;;;4.47;2.90;;;;;;;15.00;100.00;155214.56;5031013;28;20967;-87
2022/10/06 07:37:42;;;;;;;3.70;2.13;;;;;;;15.00;100.00;155213.25;5030894;28;20464;-87
2022/10/06 07:40:10;;;;;;;5.33;2.60;;;;;;;15.01;100.00;155215.88;5039602;28;20609;-87
2022/10/06 07:42:47;;;;;;;3.17;2.70;;;;;;;15.04;100.00;155223.63;5046479;28;20454;-88
2022/10/06 07:48:05;;;;;;;4.20;2.80;;;;;;;15.13;100.00;155247.03;5030560;28;20527;-87
2022/10/06 07:50:33;;;;;;;3.83;2.73;;;;;;;15.13;100.00;155248.34;5015894;28;20458;-88
2022/10/06 07:53:03;;;;;;;3.63;2.57;;;;;;;15.18;100.00;155260.00;5036943;28;20867;-88
2022/10/06 07:55:31;;;;;;;6.50;2.97;;;;;;;15.21;100.00;155267.81;5031778;28;20574;-88
2022/10/06 07:58:27;;;;;;;4.23;2.60;;;;;;;15.27;100.00;155283.44;5022325;28;20831;-87
2022/10/06 08:00:54;;;;;;;3.30;2.33;;;;;;;15.31;100.00;155293.78;5051829;28;20443;-88
2022/10/06 08:03:22;;;;;;;4.13;2.87;;;;;;;15.37;100.00;155309.41;5049402;28;20451;-87
2022/10/06 08:05:57;;;;;;;3.33;2.70;;;;;;;15.41;100.00;155319.78;5054319;28;20541;-88
2022/10/06 08:08:24;;;;;;;3.50;2.43;;;;;;;15.44;100.00;155327.59;5054784;28;20446;-88
2022/10/06 08:10:52;;;;;;;3.97;3.40;;;;;;;15.52;100.00;155348.44;5054702;28;20818;-87
2022/10/06 08:13:19;;;;;;;3.60;2.60;;;;;;;15.56;100.00;155358.84;5036861;28;20457;-87
2022/10/06 08:15:49;;;;;;;3.57;2.30;;;;;;;15.62;100.00;155373.16;5039098;28;20447;-88
2022/10/06 08:18:16;;;;;;;2.90;2.20;;;;;;;15.68;100.00;155388.72;5053392;28;20512;-88
2022/10/06 08:20:44;;;;;;;3.17;2.20;;;;;;;15.76;100.00;155409.53;5034991;28;20508;-88
2022/10/06 08:23:11;;;;;;;3.00;2.33;;;;;;;15.80;100.00;155419.94;5053917;28;20814;-88
2022/10/06 08:25:41;;;;;;;4.67;2.00;;;;;;;15.80;97.07;155419.94;5051168;28;20683;-88
2022/10/06 08:28:08;;;;;;;3.70;1.97;;;;;;;15.91;97.38;155448.56;5029252;28;20545;-88
2022/10/06 08:30:34;;;;;;;2.37;1.80;;;;;;;16.04;93.33;155482.38;5036075;28;20451;-88
2022/10/06 08:33:01;;;;;;;3.47;1.77;;;;;;;16.09;92.67;155494.06;5053281;28;20549;-87
2022/10/06 08:35:29;;;;;;;2.47;1.97;;;;;;;16.11;92.87;155500.56;5033834;28;20973;-87
2022/10/06 08:37:57;;;;;;;4.93;2.10;;;;;;;16.17;91.21;155514.88;5037112;28;20454;-87
2022/10/06 08:40:24;;;;;;;3.07;1.60;;;;;;;16.16;89.65;155512.25;5049999;28;20446;-87
2022/10/06 08:42:52;;;;;;;2.20;1.27;;;;;;;16.23;88.71;155530.47;5052400;28;20466;-87
2022/10/06 08:45:22;;;;;;;2.97;1.93;;;;;;;16.21;88.77;155525.25;5052739;28;20466;-87
2022/10/06 08:47:55;;;;;;;2.80;1.77;;;;;;;16.16;85.95;155512.25;5031813;28;21134;-87
2022/10/06 08:50:23;;;;;;;2.73;1.63;;;;;;;16.16;86.12;155512.25;5030215;28;20980;-87
2022/10/06 08:52:57;;;;;;;3.77;1.63;;;;;;;16.16;90.72;155512.25;5050431;28;20468;-87
2022/10/06 08:55:38;;;;;;;3.43;1.57;;;;;;;16.13;85.62;155504.44;5059633;28;21027;-88
2022/10/06 08:58:27;;;;;;;2.03;1.20;;;;;;;16.22;87.49;155527.84;5032943;28;20450;-88
2022/10/06 09:00:55;;;;;;;3.90;2.13;;;;;;;16.25;84.53;155535.66;5050294;28;20518;-87
2022/10/06 09:03:27;;;;;;;3.53;1.80;;;;;;;16.32;85.63;155553.84;5053508;28;20890;-87
2022/10/06 09:05:58;;;;;;;2.40;1.67;;;;;;;16.27;85.00;155540.84;5035517;28;20470;-87
2022/10/06 09:08:37;;;;;;;3.40;1.77;;;;;;;16.35;82.84;155561.66;5050265;28;20447;-88
2022/10/06 09:11:12;;;;;;;2.77;1.90;;;;;;;16.26;83.95;155539.56;5049623;28;20456;-87
2022/10/06 09:13:41;;;;;;;3.13;1.37;;;;;;;16.20;83.79;155522.66;5052432;28;20461;-87
2022/10/06 09:16:10;;;;;;;3.50;1.33;;;;;;;16.31;87.02;155551.25;5053067;28;20481;-87
2022/10/06 09:18:38;;;;;;;2.57;1.50;;;;;;;16.34;85.63;155559.06;5049803;28;20516;-88
2022/10/06 09:21:09;;;;;;;3.13;1.60;;;;;;;16.35;82.56;155561.66;5028591;28;20753;-87
2022/10/06 09:23:49;;;;;;;4.00;1.97;;;;;;;16.31;83.42;155551.25;5028903;28;20501;-87
2022/10/06 09:26:18;;;;;;;5.97;1.67;;;;;;;16.34;84.25;155559.06;5050645;28;20442;-87
2022/10/06 09:28:45;;;;;;;5.43;1.67;;;;;;;16.36;82.91;155564.28;5029730;28;20447;-88
2022/10/06 09:31:20;;;;;;;3.00;2.07;;;;;;;16.48;82.57;155594.16;5052843;28;20451;-88
2022/10/06 09:33:47;;;;;;;6.33;1.23;;;;;;;16.61;82.97;155629.34;5054290;28;20478;-87
2022/10/06 09:36:14;;;;;;;3.10;1.30;;;;;;;16.62;85.42;155630.66;5032497;28;20825;-87
2022/10/06 09:38:52;;;;;;;4.93;1.63;;;;;;;16.51;82.46;155601.97;5052722;28;20451;-87
2022/10/06 09:41:21;;;;;;;3.30;1.30;;;;;;;16.55;83.01;155612.47;5052179;28;20479;-87
2022/10/06 09:43:54;;;;;;;3.10;1.30;;;;;;;16.63;80.29;155634.53;5031562;28;20473;-86
2022/10/06 09:46:21;;;;;;;2.27;1.40;;;;;;;16.67;79.89;155644.97;5051224;28;20439;-86
2022/10/06 09:48:48;;;;;;;2.40;1.30;;;;;;;16.72;81.44;155657.97;5029517;28;21379;-88
2022/10/06 09:51:17;;;;;;;3.50;1.60;;;;;;;16.75;80.02;155664.47;5050688;28;20597;-86
2022/10/06 09:53:45;;;;;;;2.83;1.37;;;;;;;16.68;79.76;155647.53;5048365;28;20788;-87
2022/10/06 09:56:17;;;;;;;2.17;1.30;;;;;;;16.76;80.68;155668.38;5030168;28;20483;-87
2022/10/06 09:58:55;;;;;;;2.30;1.60;;;;;;;16.87;81.83;155697.00;5029366;28;20554;-87
2022/10/06 10:01:23;;;;;;;3.30;1.83;;;;;;;16.91;80.82;155706.13;5032792;28;20462;-87
2022/10/06 10:03:52;;;;;;;2.77;1.70;;;;;;;16.92;80.72;155708.69;5052998;28;20478;-87
2022/10/06 10:06:25;;;;;;;3.10;1.77;;;;;;;17.03;82.17;155737.31;5055687;28;20447;-86
2022/10/06 10:08:53;;;;;;;2.33;1.33;;;;;;;16.96;78.05;155720.44;5051892;28;20454;-87
2022/10/06 10:14:16;;;;;;;2.87;1.60;;;;;;;17.04;81.33;155741.25;5054145;28;20450;-87
2022/10/06 10:16:43;;;;;;;3.70;1.77;;;;;;;16.98;80.46;155725.63;5014618;28;20451;-87
2022/10/06 10:19:22;;;;;;;3.33;1.57;;;;;;;16.94;81.90;155715.19;5051119;28;20478;-87
2022/10/06 10:21:49;;;;;;;2.20;1.60;;;;;;;16.94;82.35;155715.19;5051504;28;20473;-87
2022/10/06 10:24:24;;;;;;;2.13;1.37;;;;;;;17.05;85.38;155742.53;5051318;28;20446;-87
2022/10/06 10:26:57;;;;;;;2.57;1.57;;;;;;;17.13;85.54;155763.34;5049548;28;20463;-88
2022/10/06 10:29:39;;;;;;;2.80;2.50;;;;;;;17.24;84.24;155790.66;5049906;28;20439;-87
2022/10/06 10:32:14;;;;;;;2.70;1.80;;;;;;;17.36;83.49;155821.94;5030520;28;20450;-87
2022/10/06 10:35:03;;;;;;;3.43;1.97;;;;;;;17.30;83.25;155806.28;5050914;28;20466;-87
2022/10/06 10:37:35;;;;;;;3.67;1.77;;;;;;;17.13;86.83;155762.06;5026668;28;20945;-87
2022/10/06 10:40:10;;;;;;;4.00;1.80;;;;;;;17.17;84.52;155772.47;5046759;28;20454;-87
2022/10/06 10:42:44;;;;;;;3.53;1.70;;;;;;;17.22;86.37;155786.78;5025465;28;20844;-87
2022/10/06 10:45:16;;;;;;;2.90;1.70;;;;;;;17.13;83.39;155762.06;5027959;28;20997;-87
2022/10/06 10:47:45;;;;;;;2.60;1.90;;;;;;;17.15;82.54;155768.59;5027608;28;20802;-87
2022/10/06 10:50:21;;;;;;;5.47;1.20;;;;;;;17.12;82.17;155759.47;5032364;28;20455;-87
2022/10/06 10:52:50;;;;;;;4.63;1.50;;;;;;;17.15;80.90;155768.59;5013229;28;20458;-87
2022/10/06 10:55:25;;;;;;;3.50;1.53;;;;;;;17.10;79.27;155754.25;5049078;28;20819;-87
2022/10/06 10:57:56;;;;;;;3.33;1.30;;;;;;;17.07;82.33;155746.44;5048146;28;20790;-87
2022/10/06 11:00:27;;;;;;;4.70;1.90;;;;;;;17.17;79.38;155772.47;5027112;28;20452;-87
2022/10/06 11:02:56;;;;;;;3.80;1.43;;;;;;;17.21;82.25;155782.91;5031995;28;20488;-87
2022/10/06 11:05:32;;;;;;;4.07;1.33;;;;;;;17.31;78.04;155808.91;5033063;28;20443;-87
2022/10/06 11:08:03;;;;;;;2.37;1.30;;;;;;;17.27;79.09;155798.47;5046760;28;21103;-74
2022/10/06 11:10:32;;;;;;;5.57;1.83;;;;;;;17.26;78.60;155795.91;5048636;28;20435;-74
2022/10/06 11:13:13;;;;;;;4.53;1.33;;;;;;;17.10;79.69;155754.25;5029522;28;20553;-75
2022/10/06 11:15:52;;;;;;;3.40;1.67;;;;;;;17.09;79.88;155752.94;5028620;28;20462;-74
2022/10/06 11:18:25;;;;;;;7.50;1.87;;;;;;;17.28;83.10;155801.09;5024085;28;20459;-74
2022/10/06 11:20:53;;;;;;;4.80;1.60;;;;;;;17.33;79.87;155814.13;5049715;28;20443;-74
2022/10/06 11:23:31;;;;;;;4.10;1.70;;;;;;;17.47;79.22;155851.84;5047827;28;21035;-74
2022/10/06 11:26:06;;;;;;;6.40;1.80;;;;;;;17.56;79.82;155875.34;5045847;28;20439;-74
2022/10/06 11:28:39;;;;;;;5.63;1.87;;;;;;;17.42;80.23;155837.56;5048617;28;20442;-74
2022/10/06 11:31:11;;;;;;;3.50;2.10;;;;;;;17.46;78.76;155849.25;5045567;28;20461;-74
2022/10/06 11:33:44;;;;;;;2.67;1.43;;;;;;;17.50;79.10;155858.38;5048259;28;20455;-74
2022/10/06 11:36:15;;;;;;;4.07;1.87;;;;;;;17.45;79.35;155846.63;5046222;28;20846;-74
2022/10/06 11:38:45;;;;;;;2.80;1.80;;;;;;;17.43;79.03;155840.13;5024027;28;20860;-74
2022/10/06 11:41:18;;;;;;;2.13;1.70;;;;;;;17.48;80.73;155853.16;5030579;28;20459;-74
2022/10/06 11:43:52;;;;;;;2.93;1.83;;;;;;;17.44;80.28;155842.75;5046293;28;20470;-74
2022/10/06 11:46:33;;;;;;;3.10;1.90;;;;;;;17.43;83.02;155840.13;5025991;28;20449;-74